createdAt,value
2022-08-09T00:01:43.163Z,20.40
2022-08-09T00:05:00.805Z,18.80
2022-08-09T00:08:32.609Z,18.70
2022-08-09T00:11:58.441Z,19.00
2022-08-09T00:15:06.290Z,18.50
2022-08-09T00:18:11.916Z,18.90
2022-08-09T00:21:14.143Z,18.80
2022-08-09T00:24:15.799Z,18.40
2022-08-09T00:27:21.679Z,19.70
2022-08-09T00:30:25.973Z,18.50
2022-08-09T00:33:48.831Z,18.30
2022-08-09T00:36:50.759Z,18.80
2022-08-09T00:40:14.129Z,18.40
2022-08-09T00:44:10.204Z,18.40
2022-08-09T00:46:56.357Z,18.10
2022-08-09T00:49:58.927Z,18.40
2022-08-09T00:53:00.610Z,18.80
2022-08-09T00:56:13.596Z,18.00
2022-08-09T00:59:15.569Z,18.40
2022-08-09T01:02:34.540Z,18.40
2022-08-09T01:06:17.479Z,19.70
2022-08-09T01:09:35.798Z,18.50
2022-08-09T01:12:59.506Z,18.20
2022-08-09T01:16:04.769Z,18.10
2022-08-09T01:19:39.961Z,18.20
2022-08-09T01:24:01.078Z,18.20
2022-08-09T01:27:08.534Z,18.00
2022-08-09T01:30:33.683Z,18.20
2022-08-09T01:33:38.392Z,20.50
2022-08-09T01:36:41.875Z,18.10
2022-08-09T01:39:46.072Z,18.10
2022-08-09T01:42:50.213Z,18.10
2022-08-09T01:45:54.371Z,17.90
2022-08-09T01:49:09.453Z,17.90
2022-08-09T01:52:15.755Z,18.00
2022-08-09T01:55:18.461Z,17.20
2022-08-09T01:58:24.210Z,18.00
2022-08-09T02:01:30.579Z,17.90
2022-08-09T02:04:52.002Z,17.90
2022-08-09T02:08:35.853Z,17.70
2022-08-09T02:11:21.410Z,17.50
2022-08-09T02:14:26.451Z,17.40
2022-08-09T02:18:01.734Z,17.50
2022-08-09T02:20:58.814Z,17.60
2022-08-09T02:24:05.865Z,17.90
2022-08-09T02:27:14.500Z,17.40
2022-08-09T02:30:21.075Z,19.30
2022-08-09T02:33:38.142Z,17.50
2022-08-09T02:36:54.691Z,17.40
2022-08-09T02:40:01.407Z,17.30
2022-08-09T02:43:08.144Z,17.70
2022-08-09T02:46:16.518Z,17.40
2022-08-09T02:49:19.311Z,17.50
2022-08-09T02:52:40.506Z,17.60
2022-08-09T02:55:53.729Z,17.60
2022-08-09T02:59:03.460Z,17.40
2022-08-09T03:02:09.763Z,17.40
2022-08-09T03:05:17.336Z,17.30
2022-08-09T03:08:21.043Z,16.70
2022-08-09T03:12:04.231Z,16.90
2022-08-09T03:14:50.518Z,17.00
2022-08-09T03:17:58.030Z,17.30
2022-08-09T03:21:03.547Z,17.30
2022-08-09T03:24:05.562Z,17.20
2022-08-09T03:27:09.596Z,17.10
2022-08-09T03:30:14.163Z,17.20
2022-08-09T03:33:54.383Z,17.30
2022-08-09T03:36:59.452Z,16.90
2022-08-09T03:40:01.740Z,17.00
2022-08-09T03:43:06.592Z,17.00
2022-08-09T03:46:20.530Z,16.90
2022-08-09T03:49:32.898Z,17.00
2022-08-09T03:52:40.337Z,17.10
2022-08-09T03:55:43.635Z,17.00
2022-08-09T03:58:46.696Z,17.20
2022-08-09T04:01:54.001Z,16.40
2022-08-09T04:05:06.371Z,16.90
2022-08-09T04:08:08.848Z,17.00
2022-08-09T04:11:11.309Z,16.70
2022-08-09T04:14:52.862Z,16.90
2022-08-09T04:17:34.535Z,16.70
2022-08-09T04:20:36.182Z,16.70
2022-08-09T04:23:38.055Z,16.80
2022-08-09T04:26:41.381Z,16.80
2022-08-09T04:29:50.143Z,16.60
2022-08-09T04:32:52.959Z,16.50
2022-08-09T04:35:55.830Z,16.60
2022-08-09T04:39:00.018Z,16.60
2022-08-09T04:42:02.819Z,16.40
2022-08-09T04:45:05.292Z,16.60
2022-08-09T04:48:10.498Z,16.50
2022-08-09T04:51:12.722Z,18.30
2022-08-09T04:54:18.644Z,16.60
2022-08-09T04:57:24.359Z,16.40
2022-08-09T05:00:27.767Z,16.70
2022-08-09T05:03:42.606Z,16.50
2022-08-09T05:06:45.357Z,16.40
2022-08-09T05:09:52.307Z,16.80
2022-08-09T05:12:53.958Z,16.50
2022-08-09T05:15:56.695Z,17.10
2022-08-09T05:19:00.302Z,16.50
2022-08-09T05:22:02.376Z,16.50
2022-08-09T05:25:05.230Z,16.70
2022-08-09T05:28:06.838Z,16.60
2022-08-09T05:31:09.659Z,16.70
2022-08-09T05:34:16.564Z,16.70
2022-08-09T05:37:18.858Z,16.40
2022-08-09T05:40:20.573Z,16.60
2022-08-09T05:43:23.636Z,16.40
2022-08-09T05:46:25.322Z,16.60
2022-08-09T05:50:26.002Z,16.50
2022-08-09T05:52:53.352Z,16.40
2022-08-09T05:55:55.605Z,16.70
2022-08-09T05:58:58.599Z,17.60
2022-08-09T06:02:00.473Z,16.80
2022-08-09T06:05:04.079Z,18.20
2022-08-09T06:08:07.969Z,17.10
2022-08-09T06:11:17.325Z,17.70
2022-08-09T06:14:19.647Z,19.40
2022-08-09T06:17:22.050Z,17.30
2022-08-09T06:20:23.711Z,17.20
2022-08-09T06:23:57.936Z,17.50
2022-08-09T06:26:50.475Z,17.60
2022-08-09T06:30:04.368Z,20.00
2022-08-09T06:33:30.340Z,17.60
2022-08-09T06:36:33.023Z,18.00
2022-08-09T06:39:49.007Z,18.20
2022-08-09T06:42:56.322Z,18.00
2022-08-09T06:46:07.511Z,18.60
2022-08-09T06:49:12.745Z,18.20
2022-08-09T06:52:17.795Z,18.60
2022-08-09T06:55:23.203Z,18.40
2022-08-09T06:58:46.247Z,18.40
2022-08-09T07:01:54.787Z,18.80
2022-08-09T07:05:02.286Z,18.90
2022-08-09T07:08:04.198Z,20.50
2022-08-09T07:11:06.947Z,19.40
2022-08-09T07:14:08.876Z,19.20
2022-08-09T07:17:10.479Z,19.10
2022-08-09T07:20:14.585Z,19.10
2022-08-09T07:23:18.179Z,19.70
2022-08-09T07:26:20.955Z,19.50
2022-08-09T07:29:24.819Z,19.80
2022-08-09T07:32:33.567Z,20.60
2022-08-09T07:35:53.460Z,19.90
2022-08-09T07:39:00.963Z,20.10
2022-08-09T07:42:04.249Z,19.90
2022-08-09T07:45:22.892Z,20.20
2022-08-09T07:48:30.399Z,20.30
2022-08-09T07:52:05.419Z,20.20
2022-08-09T07:54:55.123Z,20.50
2022-08-09T07:57:59.166Z,20.80
2022-08-09T08:01:10.911Z,20.20
2022-08-09T08:04:13.060Z,20.10
2022-08-09T08:08:06.180Z,20.40
2022-08-09T08:10:37.048Z,20.90
2022-08-09T08:13:55.861Z,20.70
2022-08-09T08:17:07.512Z,22.90
2022-08-09T08:20:13.119Z,23.20
2022-08-09T08:23:17.823Z,20.60
2022-08-09T08:26:26.706Z,20.90
2022-08-09T08:29:45.229Z,21.20
2022-08-09T08:32:53.858Z,21.30
2022-08-09T08:36:00.303Z,21.20
2022-08-09T08:39:05.461Z,21.70
2022-08-09T08:42:07.544Z,21.60
2022-08-09T08:45:13.433Z,21.50
2022-08-09T08:48:19.850Z,21.50
2022-08-09T08:51:25.615Z,21.40
2022-08-09T08:54:29.725Z,22.30
2022-08-09T08:57:35.144Z,21.50
2022-08-09T09:00:37.864Z,23.40
2022-08-09T09:03:42.069Z,22.00
2022-08-09T09:06:48.404Z,22.10
2022-08-09T09:10:02.091Z,22.70
2022-08-09T09:13:09.520Z,23.00
2022-08-09T09:16:13.107Z,22.70
2022-08-09T09:19:36.932Z,22.10
2022-08-09T09:23:01.777Z,22.50
2022-08-09T09:26:11.880Z,22.60
2022-08-09T09:29:17.021Z,23.00
2022-08-09T09:32:32.222Z,22.90
2022-08-09T09:36:00.571Z,23.50
2022-08-09T09:39:10.151Z,23.30
2022-08-09T09:42:28.744Z,23.30
2022-08-09T09:45:56.975Z,22.90
2022-08-09T09:49:04.668Z,23.30
2022-08-09T09:52:33.468Z,23.30
2022-08-09T09:55:33.168Z,24.40
2022-08-09T09:58:49.080Z,23.50
2022-08-09T10:02:00.272Z,23.40
2022-08-09T10:05:09.842Z,23.70
2022-08-09T10:08:27.784Z,23.90
2022-08-09T10:12:00.014Z,24.00
2022-08-09T10:15:25.355Z,24.00
2022-08-09T10:18:37.492Z,23.80
2022-08-09T10:21:54.133Z,24.10
2022-08-09T10:24:59.292Z,24.50
2022-08-09T10:28:06.381Z,24.20
2022-08-09T10:34:33.772Z,24.30
2022-08-09T10:37:38.987Z,24.60
2022-08-09T10:40:44.749Z,24.20
2022-08-09T10:44:01.094Z,25.40
2022-08-09T10:48:16.614Z,24.50
2022-08-09T10:51:06.576Z,24.70
2022-08-09T10:54:12.448Z,24.50
2022-08-09T10:57:15.034Z,25.20
2022-08-09T11:00:28.825Z,25.30
2022-08-09T11:03:51.417Z,23.90
2022-08-09T11:07:12.141Z,25.00
2022-08-09T11:10:21.965Z,25.20
2022-08-09T11:13:50.085Z,27.00
2022-08-09T11:16:52.471Z,25.10
2022-08-09T11:20:10.081Z,25.40
2022-08-09T11:23:15.427Z,26.70
2022-08-09T11:26:40.730Z,25.40
2022-08-09T11:30:05.266Z,25.50
2022-08-09T11:33:19.012Z,27.20
2022-08-09T11:36:35.328Z,25.50
2022-08-09T11:40:04.271Z,27.00
2022-08-09T11:43:06.226Z,25.60
2022-08-09T11:46:09.292Z,27.90
2022-08-09T11:49:16.874Z,25.50
2022-08-09T11:53:16.026Z,25.70
2022-08-09T11:55:53.361Z,25.70
2022-08-09T11:59:05.672Z,25.80
2022-08-09T12:02:37.456Z,25.70
2022-08-09T12:05:39.833Z,27.30
2022-08-09T12:08:51.585Z,28.00
2022-08-09T12:12:12.084Z,25.90
2022-08-09T12:15:49.582Z,27.80
2022-08-09T12:18:54.090Z,26.00
2022-08-09T12:22:00.471Z,26.30
2022-08-09T12:25:36.492Z,26.10
2022-08-09T12:29:09.878Z,26.50
2022-08-09T12:32:10.812Z,27.00
2022-08-09T12:35:17.044Z,26.50
2022-08-09T12:38:37.366Z,26.80
2022-08-09T12:41:40.609Z,26.40
2022-08-09T12:44:51.989Z,26.50
2022-08-09T12:47:54.249Z,27.00
2022-08-09T12:50:57.060Z,26.40
2022-08-09T12:54:01.946Z,27.90
2022-08-09T12:57:03.626Z,27.20
2022-08-09T13:00:25.167Z,27.00
2022-08-09T13:03:57.166Z,27.10
2022-08-09T13:06:54.077Z,29.40
2022-08-09T13:10:04.256Z,27.40
2022-08-09T13:13:10.172Z,27.20
2022-08-09T13:16:15.716Z,28.30
2022-08-09T13:20:09.645Z,27.40
2022-08-09T13:23:05.693Z,29.40
2022-08-09T13:26:38.860Z,29.10
2022-08-09T13:30:04.104Z,29.20
2022-08-09T13:33:24.798Z,27.40
2022-08-09T13:36:46.372Z,29.10
2022-08-09T13:41:50.736Z,29.30
2022-08-09T13:43:15.477Z,28.10
2022-08-09T13:47:16.671Z,28.70
2022-08-09T13:49:58.219Z,27.90
2022-08-09T13:53:01.492Z,28.00
2022-08-09T13:56:05.321Z,30.90
2022-08-09T13:59:07.060Z,28.50
2022-08-09T14:02:09.969Z,30.60
2022-08-09T14:05:13.475Z,29.10
2022-08-09T14:08:33.330Z,31.70
2022-08-09T14:11:47.268Z,30.10
2022-08-09T14:14:53.815Z,30.90
2022-08-09T14:18:16.511Z,30.00
2022-08-09T14:21:23.196Z,30.10
2022-08-09T14:24:31.995Z,30.30
2022-08-09T14:27:34.344Z,31.40
2022-08-09T14:30:55.903Z,30.20
2022-08-09T14:33:57.624Z,33.30
2022-08-09T14:37:06.726Z,31.70
2022-08-09T14:40:10.068Z,30.90
2022-08-09T14:43:12.493Z,31.20
2022-08-09T14:46:58.659Z,31.70
2022-08-09T14:50:01.615Z,31.20
2022-08-09T14:53:11.532Z,31.40
2022-08-09T14:56:13.753Z,31.80
2022-08-09T14:59:15.763Z,32.30
2022-08-09T15:02:20.474Z,33.20
2022-08-09T15:05:25.448Z,31.60
2022-08-09T15:08:30.206Z,31.40
2022-08-09T15:11:33.622Z,31.60
2022-08-09T15:14:38.587Z,30.60
2022-08-09T15:17:46.114Z,31.70
2022-08-09T15:21:57.383Z,31.30
2022-08-09T15:24:16.471Z,30.80
2022-08-09T15:27:23.858Z,30.80
2022-08-09T15:30:58.381Z,30.20
2022-08-09T15:34:17.574Z,30.00
2022-08-09T15:37:37.287Z,28.00
2022-08-09T15:41:02.114Z,28.90
2022-08-09T15:44:13.533Z,28.70
2022-08-09T15:47:22.639Z,28.30
2022-08-09T15:50:33.631Z,29.50
2022-08-09T15:54:06.871Z,27.60
2022-08-09T15:56:56.800Z,29.30
2022-08-09T15:59:58.645Z,27.40
2022-08-09T16:03:00.248Z,27.30
2022-08-09T16:06:04.275Z,26.90
2022-08-09T16:09:06.175Z,26.90
2022-08-09T16:12:11.547Z,26.90
2022-08-09T16:16:09.803Z,26.80
2022-08-09T16:18:35.807Z,28.80
2022-08-09T16:21:38.815Z,27.10
2022-08-09T16:24:40.477Z,26.50
2022-08-09T16:27:43.922Z,26.30
2022-08-09T16:30:58.432Z,26.90
2022-08-09T16:34:02.575Z,26.20
2022-08-09T16:37:10.378Z,26.30
2022-08-09T16:40:29.398Z,26.80
2022-08-09T16:43:40.447Z,26.30
2022-08-09T16:46:55.315Z,26.20
2022-08-09T16:50:33.099Z,26.50
2022-08-09T16:53:33.997Z,25.80
2022-08-09T16:56:37.061Z,26.40
2022-08-09T16:59:57.929Z,27.30
2022-08-09T17:03:00.477Z,26.10
2022-08-09T17:06:28.168Z,25.60
2022-08-09T17:09:45.763Z,25.60
2022-08-09T17:12:49.299Z,26.10
2022-08-09T17:16:00.257Z,25.80
2022-08-09T17:19:05.305Z,26.10
2022-08-09T17:22:10.838Z,26.00
2022-08-09T17:25:14.186Z,26.10
2022-08-09T17:28:18.096Z,25.70
2022-08-09T17:31:22.281Z,26.50
2022-08-09T17:35:04.142Z,25.60
2022-08-09T17:38:02.609Z,27.40
2022-08-09T17:41:09.491Z,26.70
2022-08-09T17:44:47.227Z,26.60
2022-08-09T17:47:48.378Z,26.60
2022-08-09T17:50:55.993Z,26.70
2022-08-09T17:54:01.850Z,26.70
2022-08-09T17:57:04.283Z,26.60
2022-08-09T18:00:09.875Z,25.70
2022-08-09T18:03:13.093Z,26.40
2022-08-09T18:06:28.918Z,26.70
2022-08-09T18:09:41.637Z,27.70
2022-08-09T18:13:54.615Z,27.40
2022-08-09T18:16:08.771Z,27.00
2022-08-09T18:20:55.624Z,26.70
2022-08-09T18:22:37.888Z,26.00
2022-08-09T18:25:53.256Z,25.70
2022-08-09T18:30:37.884Z,25.70
2022-08-09T18:32:22.235Z,25.60
2022-08-09T18:35:58.452Z,25.20
2022-08-09T18:38:48.503Z,25.30
2022-08-09T18:41:53.922Z,24.00
2022-08-09T18:44:56.976Z,24.90
2022-08-09T18:47:59.705Z,24.80
2022-08-09T18:51:02.409Z,25.10
2022-08-09T18:54:08.580Z,24.50
2022-08-09T18:57:22.445Z,24.70
2022-08-09T19:00:26.054Z,24.60
2022-08-09T19:03:29.446Z,24.90
2022-08-09T19:06:51.609Z,24.10
2022-08-09T19:10:13.966Z,24.50
2022-08-09T19:13:22.293Z,24.40
2022-08-09T19:16:27.472Z,24.40
2022-08-09T19:19:41.509Z,24.10
2022-08-09T19:22:53.182Z,24.40
2022-08-09T19:26:01.916Z,24.30
2022-08-09T19:29:18.211Z,24.20
2022-08-09T19:32:26.678Z,23.80
2022-08-09T19:35:57.216Z,24.00
2022-08-09T19:38:59.129Z,23.80
2022-08-09T19:42:06.505Z,23.70
2022-08-09T19:45:10.102Z,23.50
2022-08-09T19:48:12.382Z,23.70
2022-08-09T19:51:14.028Z,22.50
2022-08-09T19:54:20.058Z,25.00
2022-08-09T19:57:25.554Z,23.10
2022-08-09T20:00:31.312Z,23.40
2022-08-09T20:04:16.789Z,23.10
2022-08-09T20:07:00.587Z,23.40
2022-08-09T20:10:17.631Z,23.60
2022-08-09T20:13:28.769Z,22.90
2022-08-09T20:16:53.528Z,23.10
2022-08-09T20:19:57.087Z,23.10
2022-08-09T20:22:58.774Z,23.20
2022-08-09T20:26:01.333Z,23.00
2022-08-09T20:29:18.704Z,22.60
2022-08-09T20:32:29.689Z,22.70
2022-08-09T20:35:33.414Z,23.00
2022-08-09T20:39:01.163Z,22.80
2022-08-09T20:41:59.242Z,24.10
2022-08-09T20:45:56.515Z,22.80
2022-08-09T20:48:22.742Z,22.80
2022-08-09T20:51:25.831Z,22.70
2022-08-09T20:54:27.769Z,22.40
2022-08-09T20:57:32.145Z,23.30
2022-08-09T21:00:35.063Z,22.20
2022-08-09T21:03:39.395Z,22.70
2022-08-09T21:06:58.185Z,22.40
2022-08-09T21:10:00.085Z,22.70
2022-08-09T21:13:01.709Z,22.20
2022-08-09T21:16:04.186Z,21.80
2022-08-09T21:20:19.009Z,22.40
2022-08-09T21:22:47.073Z,22.30
2022-08-09T21:25:59.860Z,22.10
2022-08-09T21:29:01.758Z,22.00
2022-08-09T21:32:18.542Z,22.20
2022-08-09T21:35:21.704Z,22.00
2022-08-09T21:38:31.266Z,21.90
2022-08-09T21:42:06.058Z,21.90
2022-08-09T21:44:56.733Z,21.90
2022-08-09T21:47:59.512Z,21.10
2022-08-09T21:51:01.111Z,22.10
2022-08-09T21:54:04.333Z,22.00
2022-08-09T21:57:05.999Z,23.70
2022-08-09T22:00:32.297Z,21.90
2022-08-09T22:03:36.706Z,22.50
2022-08-09T22:06:58.995Z,21.90
2022-08-09T22:10:06.379Z,21.50
2022-08-09T22:13:11.393Z,21.90
2022-08-09T22:16:13.274Z,21.60
2022-08-09T22:19:53.411Z,21.70
2022-08-09T22:22:38.985Z,21.70
2022-08-09T22:26:07.938Z,21.60
2022-08-09T22:29:07.194Z,21.50
2022-08-09T22:32:29.380Z,21.40
2022-08-09T22:35:59.902Z,21.70
2022-08-09T22:38:53.547Z,21.60
2022-08-09T22:41:55.186Z,21.30
2022-08-09T22:45:00.359Z,21.60
2022-08-09T22:48:34.617Z,21.30
2022-08-09T22:51:39.415Z,21.00
2022-08-09T22:54:41.268Z,21.30
2022-08-09T22:57:44.449Z,23.10
2022-08-09T23:01:04.058Z,22.50
2022-08-09T23:04:07.486Z,23.20
2022-08-09T23:08:21.335Z,21.20
2022-08-09T23:10:49.590Z,21.00
2022-08-09T23:13:53.428Z,20.90
2022-08-09T23:16:55.017Z,21.00
2022-08-09T23:20:07.460Z,20.80
2022-08-09T23:23:09.872Z,20.90
2022-08-09T23:26:11.495Z,22.80
2022-08-09T23:29:13.733Z,21.20
2022-08-09T23:32:15.657Z,20.90
2022-08-09T23:35:17.284Z,20.60
2022-08-09T23:38:22.409Z,20.90
2022-08-09T23:41:27.613Z,20.50
2022-08-09T23:44:31.077Z,21.00
2022-08-09T23:47:32.655Z,22.10
2022-08-09T23:50:34.318Z,22.10
2022-08-09T23:53:37.629Z,20.30
2022-08-09T23:56:54.269Z,20.70
